sensor_id;sensor_type;location;lat;lon;timestamp;pressure;altitude;pressure_sealevel;temperature;humidity
68822;BME280;55834;50.870;4.606;2023-05-21T00:02:16;101102.53;;;11.51;53.36
68822;BME280;55834;50.870;4.606;2023-05-21T00:04:46;101099.94;;;11.84;52.46
68822;BME280;55834;50.870;4.606;2023-05-21T00:07:12;101099.91;;;12.15;51.84
68822;BME280;55834;50.870;4.606;2023-05-21T00:09:37;101094.38;;;12.23;51.39
68822;BME280;55834;50.870;4.606;2023-05-21T00:12:04;101098.41;;;11.41;53.20
68822;BME280;55834;50.870;4.606;2023-05-21T00:14:30;101099.13;;;11.81;53.50
68822;BME280;55834;50.870;4.606;2023-05-21T00:16:56;101092.69;;;12.20;51.10
68822;BME280;55834;50.870;4.606;2023-05-21T00:19:21;101096.34;;;11.52;52.91
68822;BME280;55834;50.870;4.606;2023-05-21T00:21:46;101092.72;;;11.89;52.56
68822;BME280;55834;50.870;4.606;2023-05-21T00:24:12;101091.31;;;12.67;50.78
68822;BME280;55834;50.870;4.606;2023-05-21T00:26:37;101091.50;;;11.70;53.04
68822;BME280;55834;50.870;4.606;2023-05-21T00:29:03;101087.78;;;12.07;52.94
68822;BME280;55834;50.870;4.606;2023-05-21T00:31:29;101082.66;;;12.02;53.03
68822;BME280;55834;50.870;4.606;2023-05-21T00:33:54;101083.13;;;11.52;53.14
68822;BME280;55834;50.870;4.606;2023-05-21T00:36:20;101084.56;;;12.27;51.50
68822;BME280;55834;50.870;4.606;2023-05-21T00:38:49;101083.00;;;12.49;52.00
68822;BME280;55834;50.870;4.606;2023-05-21T00:41:15;101080.63;;;12.70;50.23
68822;BME280;55834;50.870;4.606;2023-05-21T00:43:41;101082.97;;;12.51;51.24
68822;BME280;55834;50.870;4.606;2023-05-21T00:46:10;101080.53;;;12.73;50.55
68822;BME280;55834;50.870;4.606;2023-05-21T00:48:36;101078.41;;;12.84;49.40
68822;BME280;55834;50.870;4.606;2023-05-21T00:51:02;101083.03;;;13.05;49.94
68822;BME280;55834;50.870;4.606;2023-05-21T00:53:29;101082.81;;;13.12;48.81
68822;BME280;55834;50.870;4.606;2023-05-21T00:55:56;101087.59;;;13.27;48.42
68822;BME280;55834;50.870;4.606;2023-05-21T00:58:22;101092.53;;;13.11;49.48
68822;BME280;55834;50.870;4.606;2023-05-21T01:00:47;101079.94;;;13.18;48.69
68822;BME280;55834;50.870;4.606;2023-05-21T01:03:13;101082.00;;;13.09;48.67
68822;BME280;55834;50.870;4.606;2023-05-21T01:05:40;101083.81;;;13.07;49.16
68822;BME280;55834;50.870;4.606;2023-05-21T01:08:09;101080.28;;;13.08;48.09
68822;BME280;55834;50.870;4.606;2023-05-21T01:10:35;101087.09;;;12.89;49.10
68822;BME280;55834;50.870;4.606;2023-05-21T01:13:52;101086.75;;;12.72;49.13
68822;BME280;55834;50.870;4.606;2023-05-21T01:16:36;101089.22;;;12.48;50.23
68822;BME280;55834;50.870;4.606;2023-05-21T01:19:04;101085.16;;;12.66;50.36
68822;BME280;55834;50.870;4.606;2023-05-21T01:21:29;101085.59;;;12.80;49.17
68822;BME280;55834;50.870;4.606;2023-05-21T01:23:55;101085.59;;;12.80;48.30
68822;BME280;55834;50.870;4.606;2023-05-21T01:26:20;101081.44;;;11.83;51.81
68822;BME280;55834;50.870;4.606;2023-05-21T01:28:46;101084.88;;;11.19;54.37
68822;BME280;55834;50.870;4.606;2023-05-21T01:31:52;101073.78;;;11.05;54.42
68822;BME280;55834;50.870;4.606;2023-05-21T01:34:24;101068.41;;;11.42;53.78
68822;BME280;55834;50.870;4.606;2023-05-21T01:37:00;101076.03;;;11.20;53.82
68822;BME280;55834;50.870;4.606;2023-05-21T01:39:33;101069.19;;;11.46;53.21
68822;BME280;55834;50.870;4.606;2023-05-21T01:42:02;101069.50;;;11.34;53.01
68822;BME280;55834;50.870;4.606;2023-05-21T01:44:30;101083.13;;;11.18;53.76
68822;BME280;55834;50.870;4.606;2023-05-21T01:46:57;101076.25;;;11.11;53.78
68822;BME280;55834;50.870;4.606;2023-05-21T01:49:23;101061.88;;;10.89;54.73
68822;BME280;55834;50.870;4.606;2023-05-21T01:51:49;101078.19;;;10.69;55.64
68822;BME280;55834;50.870;4.606;2023-05-21T01:54:14;101088.16;;;9.21;58.67
68822;BME280;55834;50.870;4.606;2023-05-21T01:56:40;101078.38;;;9.26;59.53
68822;BME280;55834;50.870;4.606;2023-05-21T01:59:06;101066.63;;;9.47;59.00
68822;BME280;55834;50.870;4.606;2023-05-21T02:01:31;101059.25;;;10.50;56.46
68822;BME280;55834;50.870;4.606;2023-05-21T02:03:57;101061.47;;;11.04;55.34
68822;BME280;55834;50.870;4.606;2023-05-21T02:06:22;101052.53;;;11.42;54.25
68822;BME280;55834;50.870;4.606;2023-05-21T02:08:48;101054.50;;;11.68;52.43
68822;BME280;55834;50.870;4.606;2023-05-21T02:11:13;101058.72;;;11.76;52.25
68822;BME280;55834;50.870;4.606;2023-05-21T02:13:39;101057.59;;;11.84;52.16
68822;BME280;55834;50.870;4.606;2023-05-21T02:16:10;101053.06;;;11.57;52.35
68822;BME280;55834;50.870;4.606;2023-05-21T02:18:37;101062.88;;;11.51;52.40
68822;BME280;55834;50.870;4.606;2023-05-21T02:21:02;101060.28;;;11.16;53.53
68822;BME280;55834;50.870;4.606;2023-05-21T02:23:28;101061.41;;;10.71;54.98
68822;BME280;55834;50.870;4.606;2023-05-21T02:25:53;101055.03;;;10.80;55.27
68822;BME280;55834;50.870;4.606;2023-05-21T02:28:19;101049.41;;;11.28;54.96
68822;BME280;55834;50.870;4.606;2023-05-21T02:30:45;101047.25;;;11.42;52.95
68822;BME280;55834;50.870;4.606;2023-05-21T02:33:11;101051.28;;;11.57;52.96
68822;BME280;55834;50.870;4.606;2023-05-21T02:35:38;101057.22;;;11.33;53.22
68822;BME280;55834;50.870;4.606;2023-05-21T02:38:04;101059.28;;;11.21;53.61
68822;BME280;55834;50.870;4.606;2023-05-21T02:40:29;101052.88;;;11.30;53.71
68822;BME280;55834;50.870;4.606;2023-05-21T02:42:56;101058.09;;;11.32;53.87
68822;BME280;55834;50.870;4.606;2023-05-21T02:45:22;101048.63;;;11.24;53.82
68822;BME280;55834;50.870;4.606;2023-05-21T02:47:47;101054.31;;;11.09;53.84
68822;BME280;55834;50.870;4.606;2023-05-21T02:50:13;101050.31;;;10.91;54.60
68822;BME280;55834;50.870;4.606;2023-05-21T02:52:39;101040.16;;;11.12;54.42
68822;BME280;55834;50.870;4.606;2023-05-21T02:55:06;101048.59;;;10.92;54.07
68822;BME280;55834;50.870;4.606;2023-05-21T02:57:31;101036.69;;;11.08;54.09
68822;BME280;55834;50.870;4.606;2023-05-21T02:59:57;101040.84;;;11.18;53.22
68822;BME280;55834;50.870;4.606;2023-05-21T03:02:22;101049.66;;;11.17;53.78
68822;BME280;55834;50.870;4.606;2023-05-21T03:04:48;101044.00;;;11.33;52.93
68822;BME280;55834;50.870;4.606;2023-05-21T03:07:15;101040.00;;;11.18;52.96
68822;BME280;55834;50.870;4.606;2023-05-21T03:09:44;101046.47;;;11.04;54.45
68822;BME280;55834;50.870;4.606;2023-05-21T03:12:09;101045.28;;;11.18;54.49
68822;BME280;55834;50.870;4.606;2023-05-21T03:14:36;101045.13;;;11.22;53.77
68822;BME280;55834;50.870;4.606;2023-05-21T03:17:01;101046.13;;;11.18;53.92
68822;BME280;55834;50.870;4.606;2023-05-21T03:19:31;101045.03;;;10.93;54.23
68822;BME280;55834;50.870;4.606;2023-05-21T03:21:59;101043.91;;;11.03;54.24
68822;BME280;55834;50.870;4.606;2023-05-21T03:24:26;101048.81;;;10.44;55.30
68822;BME280;55834;50.870;4.606;2023-05-21T03:26:51;101046.81;;;9.23;59.38
68822;BME280;55834;50.870;4.606;2023-05-21T03:29:17;101049.84;;;9.53;59.17
68822;BME280;55834;50.870;4.606;2023-05-21T03:31:43;101054.72;;;8.72;61.22
68822;BME280;55834;50.870;4.606;2023-05-21T03:34:08;101052.28;;;9.62;58.97
68822;BME280;55834;50.870;4.606;2023-05-21T03:36:34;101047.03;;;10.04;58.13
68822;BME280;55834;50.870;4.606;2023-05-21T03:38:59;101050.44;;;10.09;57.37
68822;BME280;55834;50.870;4.606;2023-05-21T03:41:25;101046.38;;;9.94;57.29
68822;BME280;55834;50.870;4.606;2023-05-21T03:43:50;101044.28;;;9.17;60.31
68822;BME280;55834;50.870;4.606;2023-05-21T03:46:16;101048.13;;;8.99;60.90
68822;BME280;55834;50.870;4.606;2023-05-21T03:48:41;101052.75;;;8.86;61.57
68822;BME280;55834;50.870;4.606;2023-05-21T03:51:06;101045.97;;;8.70;61.70
68822;BME280;55834;50.870;4.606;2023-05-21T03:53:35;101047.38;;;8.91;61.25
68822;BME280;55834;50.870;4.606;2023-05-21T03:56:00;101043.91;;;8.31;63.42
68822;BME280;55834;50.870;4.606;2023-05-21T03:58:26;101047.22;;;8.44;62.93
68822;BME280;55834;50.870;4.606;2023-05-21T04:00:52;101044.78;;;8.89;62.23
68822;BME280;55834;50.870;4.606;2023-05-21T04:03:17;101039.56;;;9.39;60.45
68822;BME280;55834;50.870;4.606;2023-05-21T04:05:43;101036.91;;;9.84;59.00
68822;BME280;55834;50.870;4.606;2023-05-21T04:08:09;101039.72;;;9.28;59.97
68822;BME280;55834;50.870;4.606;2023-05-21T04:10:35;101048.63;;;9.69;59.05
68822;BME280;55834;50.870;4.606;2023-05-21T04:13:00;101049.41;;;9.74;59.31
68822;BME280;55834;50.870;4.606;2023-05-21T04:15:25;101051.94;;;10.22;57.83
68822;BME280;55834;50.870;4.606;2023-05-21T04:17:52;101056.94;;;10.34;57.31
68822;BME280;55834;50.870;4.606;2023-05-21T04:20:19;101059.44;;;10.39;56.21
68822;BME280;55834;50.870;4.606;2023-05-21T04:22:44;101052.50;;;10.35;56.48
68822;BME280;55834;50.870;4.606;2023-05-21T04:25:10;101050.38;;;10.54;56.15
68822;BME280;55834;50.870;4.606;2023-05-21T04:27:36;101043.81;;;10.70;55.46
68822;BME280;55834;50.870;4.606;2023-05-21T04:30:02;101045.13;;;10.88;55.10
68822;BME280;55834;50.870;4.606;2023-05-21T04:32:30;101058.94;;;10.64;56.13
68822;BME280;55834;50.870;4.606;2023-05-21T04:34:57;101064.22;;;10.64;56.61
68822;BME280;55834;50.870;4.606;2023-05-21T04:37:28;101057.59;;;10.83;55.91
68822;BME280;55834;50.870;4.606;2023-05-21T04:39:54;101060.41;;;10.77;55.34
68822;BME280;55834;50.870;4.606;2023-05-21T04:42:19;101062.56;;;9.76;58.24
68822;BME280;55834;50.870;4.606;2023-05-21T04:44:48;101064.19;;;9.81;58.60
68822;BME280;55834;50.870;4.606;2023-05-21T04:47:15;101067.56;;;10.31;57.85
68822;BME280;55834;50.870;4.606;2023-05-21T04:49:40;101066.78;;;10.28;57.79
68822;BME280;55834;50.870;4.606;2023-05-21T04:52:06;101060.66;;;10.24;58.09
68822;BME280;55834;50.870;4.606;2023-05-21T04:54:32;101067.66;;;10.67;57.50
68822;BME280;55834;50.870;4.606;2023-05-21T04:56:58;101064.59;;;10.48;56.87
68822;BME280;55834;50.870;4.606;2023-05-21T04:59:23;101058.34;;;9.67;58.79
68822;BME280;55834;50.870;4.606;2023-05-21T05:01:49;101059.22;;;9.66;59.81
68822;BME280;55834;50.870;4.606;2023-05-21T05:04:14;101056.25;;;9.38;60.27
68822;BME280;55834;50.870;4.606;2023-05-21T05:06:40;101061.78;;;9.70;60.14
68822;BME280;55834;50.870;4.606;2023-05-21T05:09:05;101054.66;;;9.26;61.28
68822;BME280;55834;50.870;4.606;2023-05-21T05:11:30;101067.16;;;9.66;61.05
68822;BME280;55834;50.870;4.606;2023-05-21T05:13:56;101069.56;;;9.28;61.40
68822;BME280;55834;50.870;4.606;2023-05-21T05:16:21;101052.94;;;9.25;61.78
68822;BME280;55834;50.870;4.606;2023-05-21T05:18:50;101068.72;;;9.76;60.42
68822;BME280;55834;50.870;4.606;2023-05-21T05:21:16;101067.19;;;9.63;60.73
68822;BME280;55834;50.870;4.606;2023-05-21T05:23:42;101064.94;;;8.92;62.43
68822;BME280;55834;50.870;4.606;2023-05-21T05:26:07;101054.41;;;8.90;62.78
68822;BME280;55834;50.870;4.606;2023-05-21T05:28:33;101062.56;;;9.76;60.95
68822;BME280;55834;50.870;4.606;2023-05-21T05:30:58;101056.91;;;9.51;61.25
68822;BME280;55834;50.870;4.606;2023-05-21T05:33:24;101059.91;;;9.77;60.64
68822;BME280;55834;50.870;4.606;2023-05-21T05:35:49;101069.44;;;9.83;60.26
68822;BME280;55834;50.870;4.606;2023-05-21T05:38:15;101062.00;;;10.44;59.33
68822;BME280;55834;50.870;4.606;2023-05-21T05:40:41;101058.34;;;10.88;57.93
68822;BME280;55834;50.870;4.606;2023-05-21T05:43:06;101057.75;;;11.11;56.92
68822;BME280;55834;50.870;4.606;2023-05-21T05:45:31;101053.31;;;11.46;55.60
68822;BME280;55834;50.870;4.606;2023-05-21T05:47:57;101058.06;;;11.67;55.68
68822;BME280;55834;50.870;4.606;2023-05-21T05:50:22;101051.59;;;11.78;54.11
68822;BME280;55834;50.870;4.606;2023-05-21T05:52:48;101059.16;;;11.91;54.16
68822;BME280;55834;50.870;4.606;2023-05-21T05:55:14;101057.91;;;12.03;53.27
68822;BME280;55834;50.870;4.606;2023-05-21T05:57:39;101068.13;;;11.53;55.33
68822;BME280;55834;50.870;4.606;2023-05-21T06:00:05;101064.34;;;11.63;55.38
68822;BME280;55834;50.870;4.606;2023-05-21T06:02:31;101060.28;;;11.50;55.94
68822;BME280;55834;50.870;4.606;2023-05-21T06:04:56;101064.91;;;11.74;55.80
68822;BME280;55834;50.870;4.606;2023-05-21T06:07:22;101065.09;;;12.00;54.29
68822;BME280;55834;50.870;4.606;2023-05-21T06:09:48;101059.03;;;12.26;54.24
68822;BME280;55834;50.870;4.606;2023-05-21T06:12:13;101059.50;;;12.38;53.44
68822;BME280;55834;50.870;4.606;2023-05-21T06:14:41;101060.53;;;12.34;53.14
68822;BME280;55834;50.870;4.606;2023-05-21T06:17:06;101067.66;;;11.71;55.00
68822;BME280;55834;50.870;4.606;2023-05-21T06:19:32;101063.94;;;11.44;56.19
68822;BME280;55834;50.870;4.606;2023-05-21T06:21:57;101060.66;;;12.00;55.59
68822;BME280;55834;50.870;4.606;2023-05-21T06:24:23;101065.66;;;11.80;56.66
68822;BME280;55834;50.870;4.606;2023-05-21T06:26:48;101067.88;;;11.29;58.50
68822;BME280;55834;50.870;4.606;2023-05-21T06:29:13;101075.78;;;10.58;60.34
68822;BME280;55834;50.870;4.606;2023-05-21T06:31:41;101074.97;;;10.14;61.74
68822;BME280;55834;50.870;4.606;2023-05-21T06:34:07;101073.78;;;10.69;61.15
68822;BME280;55834;50.870;4.606;2023-05-21T06:36:32;101068.34;;;10.75;60.82
68822;BME280;55834;50.870;4.606;2023-05-21T06:38:59;101057.84;;;11.08;59.51
68822;BME280;55834;50.870;4.606;2023-05-21T06:41:25;101069.91;;;10.82;60.83
68822;BME280;55834;50.870;4.606;2023-05-21T06:43:50;101064.41;;;11.26;59.97
68822;BME280;55834;50.870;4.606;2023-05-21T06:46:16;101070.72;;;11.22;59.23
68822;BME280;55834;50.870;4.606;2023-05-21T06:48:42;101069.44;;;12.02;57.30
68822;BME280;55834;50.870;4.606;2023-05-21T06:51:08;101065.38;;;11.89;56.66
68822;BME280;55834;50.870;4.606;2023-05-21T06:53:33;101065.31;;;11.61;58.66
68822;BME280;55834;50.870;4.606;2023-05-21T06:55:59;101058.34;;;11.58;58.63
68822;BME280;55834;50.870;4.606;2023-05-21T06:58:24;101063.50;;;10.94;60.53
68822;BME280;55834;50.870;4.606;2023-05-21T07:00:55;101070.97;;;10.77;61.95
68822;BME280;55834;50.870;4.606;2023-05-21T07:03:21;101065.56;;;11.50;59.43
68822;BME280;55834;50.870;4.606;2023-05-21T07:05:46;101064.41;;;11.93;59.21
68822;BME280;55834;50.870;4.606;2023-05-21T07:08:12;101068.59;;;11.69;58.98
68822;BME280;55834;50.870;4.606;2023-05-21T07:10:37;101061.38;;;12.35;57.51
68822;BME280;55834;50.870;4.606;2023-05-21T07:13:02;101054.63;;;12.82;55.71
68822;BME280;55834;50.870;4.606;2023-05-21T07:15:28;101056.19;;;12.32;57.15
68822;BME280;55834;50.870;4.606;2023-05-21T07:17:54;101055.91;;;11.82;59.64
68822;BME280;55834;50.870;4.606;2023-05-21T07:20:20;101050.53;;;12.72;55.96
68822;BME280;55834;50.870;4.606;2023-05-21T07:22:46;101049.25;;;12.56;57.60
68822;BME280;55834;50.870;4.606;2023-05-21T07:25:11;101046.09;;;13.26;54.67
68822;BME280;55834;50.870;4.606;2023-05-21T07:27:36;101038.31;;;13.20;55.80
68822;BME280;55834;50.870;4.606;2023-05-21T07:30:02;101037.97;;;13.30;55.59
68822;BME280;55834;50.870;4.606;2023-05-21T07:32:27;101047.72;;;12.49;56.75
68822;BME280;55834;50.870;4.606;2023-05-21T07:34:54;101037.75;;;12.57;57.17
68822;BME280;55834;50.870;4.606;2023-05-21T07:37:20;101045.22;;;11.52;60.12
68822;BME280;55834;50.870;4.606;2023-05-21T07:39:45;101048.47;;;11.63;60.20
68822;BME280;55834;50.870;4.606;2023-05-21T07:42:10;101037.75;;;13.12;57.05
68822;BME280;55834;50.870;4.606;2023-05-21T07:44:36;101039.75;;;12.20;60.21
68822;BME280;55834;50.870;4.606;2023-05-21T07:47:06;101042.22;;;11.97;59.78
68822;BME280;55834;50.870;4.606;2023-05-21T07:49:32;101022.84;;;13.07;56.34
68822;BME280;55834;50.870;4.606;2023-05-21T07:51:58;101029.59;;;13.91;54.14
68822;BME280;55834;50.870;4.606;2023-05-21T07:54:23;101036.41;;;13.98;53.96
68822;BME280;55834;50.870;4.606;2023-05-21T07:56:49;101038.31;;;14.40;53.21
68822;BME280;55834;50.870;4.606;2023-05-21T07:59:15;101038.28;;;12.40;58.40
68822;BME280;55834;50.870;4.606;2023-05-21T08:01:41;101037.78;;;13.62;55.05
68822;BME280;55834;50.870;4.606;2023-05-21T08:04:07;101038.34;;;13.45;54.54
68822;BME280;55834;50.870;4.606;2023-05-21T08:06:33;101033.66;;;13.01;56.90
68822;BME280;55834;50.870;4.606;2023-05-21T08:09:01;101036.47;;;13.73;54.57
68822;BME280;55834;50.870;4.606;2023-05-21T08:11:27;101033.75;;;13.50;55.25
68822;BME280;55834;50.870;4.606;2023-05-21T08:13:52;101038.97;;;13.01;56.23
68822;BME280;55834;50.870;4.606;2023-05-21T08:16:18;101040.50;;;13.84;54.99
68822;BME280;55834;50.870;4.606;2023-05-21T08:18:43;101038.00;;;14.26;52.75
68822;BME280;55834;50.870;4.606;2023-05-21T08:21:09;101044.13;;;12.79;58.56
68822;BME280;55834;50.870;4.606;2023-05-21T08:23:34;101042.28;;;14.30;54.12
68822;BME280;55834;50.870;4.606;2023-05-21T08:26:00;101037.34;;;13.22;56.14
68822;BME280;55834;50.870;4.606;2023-05-21T08:28:25;101040.09;;;13.71;55.76
68822;BME280;55834;50.870;4.606;2023-05-21T08:30:53;101039.06;;;13.98;53.84
68822;BME280;55834;50.870;4.606;2023-05-21T08:33:19;101040.38;;;14.56;53.66
68822;BME280;55834;50.870;4.606;2023-05-21T08:35:44;101029.38;;;14.87;52.02
68822;BME280;55834;50.870;4.606;2023-05-21T08:38:10;101029.69;;;15.42;50.86
68822;BME280;55834;50.870;4.606;2023-05-21T08:40:35;101039.50;;;14.33;54.74
68822;BME280;55834;50.870;4.606;2023-05-21T08:43:01;101022.75;;;15.18;52.26
68822;BME280;55834;50.870;4.606;2023-05-21T08:45:30;101033.56;;;14.50;53.55
68822;BME280;55834;50.870;4.606;2023-05-21T08:48:01;101015.63;;;15.40;51.88
68822;BME280;55834;50.870;4.606;2023-05-21T08:50:28;101019.38;;;15.14;51.32
68822;BME280;55834;50.870;4.606;2023-05-21T08:52:53;101029.31;;;13.99;54.84
68822;BME280;55834;50.870;4.606;2023-05-21T08:55:20;101023.47;;;13.41;56.31
68822;BME280;55834;50.870;4.606;2023-05-21T08:57:46;101021.78;;;14.56;53.46
68822;BME280;55834;50.870;4.606;2023-05-21T09:00:12;101008.88;;;15.11;52.47
68822;BME280;55834;50.870;4.606;2023-05-21T09:02:39;101019.44;;;13.79;55.09
68822;BME280;55834;50.870;4.606;2023-05-21T09:05:05;101009.66;;;14.03;55.85
68822;BME280;55834;50.870;4.606;2023-05-21T09:07:49;101013.88;;;14.76;53.14
68822;BME280;55834;50.870;4.606;2023-05-21T09:10:17;101007.25;;;14.64;53.94
68822;BME280;55834;50.870;4.606;2023-05-21T09:12:44;101005.03;;;14.96;54.07
68822;BME280;55834;50.870;4.606;2023-05-21T09:15:12;101019.59;;;13.74;56.69
68822;BME280;55834;50.870;4.606;2023-05-21T09:17:37;101004.38;;;14.71;54.79
68822;BME280;55834;50.870;4.606;2023-05-21T09:20:07;101006.66;;;15.62;52.55
68822;BME280;55834;50.870;4.606;2023-05-21T09:22:47;101007.25;;;14.86;53.30
68822;BME280;55834;50.870;4.606;2023-05-21T09:25:23;100999.09;;;14.91;52.82
68822;BME280;55834;50.870;4.606;2023-05-21T09:27:49;101009.56;;;14.52;55.42
68822;BME280;55834;50.870;4.606;2023-05-21T09:30:16;100997.56;;;15.47;52.67
68822;BME280;55834;50.870;4.606;2023-05-21T09:32:43;100995.91;;;16.21;51.29
68822;BME280;55834;50.870;4.606;2023-05-21T09:35:09;101002.88;;;15.47;53.29
68822;BME280;55834;50.870;4.606;2023-05-21T09:37:46;100992.38;;;16.02;51.77
68822;BME280;55834;50.870;4.606;2023-05-21T09:40:16;100997.00;;;15.59;52.61
68822;BME280;55834;50.870;4.606;2023-05-21T09:42:49;100988.03;;;15.99;50.00
68822;BME280;55834;50.870;4.606;2023-05-21T09:45:23;100998.22;;;15.11;53.35
68822;BME280;55834;50.870;4.606;2023-05-21T09:47:50;101002.44;;;15.76;51.98
68822;BME280;55834;50.870;4.606;2023-05-21T09:50:18;100989.44;;;15.09;53.66
68822;BME280;55834;50.870;4.606;2023-05-21T09:52:43;100992.34;;;15.64;51.53
68822;BME280;55834;50.870;4.606;2023-05-21T09:55:10;100984.97;;;15.90;52.04
68822;BME280;55834;50.870;4.606;2023-05-21T09:57:43;100992.66;;;14.97;53.93
68822;BME280;55834;50.870;4.606;2023-05-21T10:00:20;100977.56;;;14.97;53.60
68822;BME280;55834;50.870;4.606;2023-05-21T10:02:46;100982.41;;;15.68;52.67
68822;BME280;55834;50.870;4.606;2023-05-21T10:05:12;100973.75;;;17.27;52.04
68822;BME280;55834;50.870;4.606;2023-05-21T10:07:40;100981.66;;;16.04;51.66
68822;BME280;55834;50.870;4.606;2023-05-21T10:10:11;100970.06;;;16.95;50.64
68822;BME280;55834;50.870;4.606;2023-05-21T10:12:40;100964.34;;;17.37;48.84
68822;BME280;55834;50.870;4.606;2023-05-21T10:15:08;100972.28;;;16.33;51.09
68822;BME280;55834;50.870;4.606;2023-05-21T10:17:38;100954.38;;;16.88;50.69
68822;BME280;55834;50.870;4.606;2023-05-21T10:20:06;100958.03;;;17.38;46.70
68822;BME280;55834;50.870;4.606;2023-05-21T10:22:33;100960.22;;;17.14;49.12
68822;BME280;55834;50.870;4.606;2023-05-21T10:25:00;100962.63;;;15.54;53.25
68822;BME280;55834;50.870;4.606;2023-05-21T10:27:28;100944.97;;;16.81;50.92
68822;BME280;55834;50.870;4.606;2023-05-21T10:29:56;100951.72;;;17.23;49.41
68822;BME280;55834;50.870;4.606;2023-05-21T10:32:22;100943.84;;;17.87;48.66
68822;BME280;55834;50.870;4.606;2023-05-21T10:34:48;100944.06;;;17.33;48.83
68822;BME280;55834;50.870;4.606;2023-05-21T10:37:15;100939.44;;;16.13;51.73
68822;BME280;55834;50.870;4.606;2023-05-21T10:39:42;100944.09;;;15.72;52.95
68822;BME280;55834;50.870;4.606;2023-05-21T10:45:15;100929.38;;;17.75;49.81
68822;BME280;55834;50.870;4.606;2023-05-21T10:56:38;100927.75;;;15.61;52.49
68822;BME280;55834;50.870;4.606;2023-05-21T11:01:48;100907.41;;;17.03;49.66
68822;BME280;55834;50.870;4.606;2023-05-21T11:04:14;100919.47;;;16.05;51.11
68822;BME280;55834;50.870;4.606;2023-05-21T11:06:45;100920.34;;;15.86;51.55
68822;BME280;55834;50.870;4.606;2023-05-21T11:09:13;100909.28;;;16.49;50.98
68822;BME280;55834;50.870;4.606;2023-05-21T11:11:49;100903.19;;;16.47;49.99
68822;BME280;55834;50.870;4.606;2023-05-21T11:16:50;100909.84;;;15.64;54.08
68822;BME280;55834;50.870;4.606;2023-05-21T11:19:16;100906.00;;;16.27;53.07
68822;BME280;55834;50.870;4.606;2023-05-21T11:21:42;100908.28;;;17.04;49.71
68822;BME280;55834;50.870;4.606;2023-05-21T11:24:07;100903.25;;;16.98;50.50
68822;BME280;55834;50.870;4.606;2023-05-21T11:29:13;100912.88;;;15.75;53.46
68822;BME280;55834;50.870;4.606;2023-05-21T11:31:47;100897.75;;;16.49;51.29
68822;BME280;55834;50.870;4.606;2023-05-21T11:34:19;100923.56;;;16.83;51.38
68822;BME280;55834;50.870;4.606;2023-05-21T11:39:41;100919.59;;;17.25;50.55
68822;BME280;55834;50.870;4.606;2023-05-21T11:42:06;100917.31;;;18.15;47.08
68822;BME280;55834;50.870;4.606;2023-05-21T11:44:45;100927.41;;;17.45;50.28
68822;BME280;55834;50.870;4.606;2023-05-21T11:47:12;100925.09;;;17.55;49.58
68822;BME280;55834;50.870;4.606;2023-05-21T11:49:39;100918.47;;;17.46;48.51
68822;BME280;55834;50.870;4.606;2023-05-21T11:52:07;100908.81;;;17.44;49.83
68822;BME280;55834;50.870;4.606;2023-05-21T11:54:38;100912.41;;;18.54;46.86
68822;BME280;55834;50.870;4.606;2023-05-21T11:57:07;100903.22;;;18.74;46.99
68822;BME280;55834;50.870;4.606;2023-05-21T11:59:33;100907.97;;;18.68;47.72
68822;BME280;55834;50.870;4.606;2023-05-21T12:01:59;100907.75;;;19.02;46.88
68822;BME280;55834;50.870;4.606;2023-05-21T12:04:32;100911.66;;;17.41;49.70
68822;BME280;55834;50.870;4.606;2023-05-21T12:07:05;100915.59;;;17.00;49.94
68822;BME280;55834;50.870;4.606;2023-05-21T12:09:46;100912.94;;;16.29;52.07
68822;BME280;55834;50.870;4.606;2023-05-21T12:12:20;100899.88;;;16.77;50.88
68822;BME280;55834;50.870;4.606;2023-05-21T12:14:53;100904.91;;;17.00;51.24
68822;BME280;55834;50.870;4.606;2023-05-21T12:17:20;100891.06;;;18.38;47.98
68822;BME280;55834;50.870;4.606;2023-05-21T12:19:46;100896.03;;;17.33;49.54
68822;BME280;55834;50.870;4.606;2023-05-21T12:22:12;100885.41;;;17.96;48.04
68822;BME280;55834;50.870;4.606;2023-05-21T12:24:39;100888.28;;;17.93;47.91
68822;BME280;55834;50.870;4.606;2023-05-21T12:27:06;100899.41;;;17.03;50.26
68822;BME280;55834;50.870;4.606;2023-05-21T12:29:38;100889.22;;;17.76;49.17
68822;BME280;55834;50.870;4.606;2023-05-21T12:32:06;100891.19;;;17.57;50.89
68822;BME280;55834;50.870;4.606;2023-05-21T12:34:52;100882.81;;;18.57;48.34
68822;BME280;55834;50.870;4.606;2023-05-21T12:37:23;100881.53;;;18.92;47.16
68822;BME280;55834;50.870;4.606;2023-05-21T12:39:54;100893.78;;;18.06;47.65
68822;BME280;55834;50.870;4.606;2023-05-21T12:42:28;100880.44;;;18.66;48.55
68822;BME280;55834;50.870;4.606;2023-05-21T12:44:59;100886.75;;;19.24;46.86
68822;BME280;55834;50.870;4.606;2023-05-21T12:47:26;100882.91;;;19.00;46.98
68822;BME280;55834;50.870;4.606;2023-05-21T12:49:59;100876.41;;;19.88;43.56
68822;BME280;55834;50.870;4.606;2023-05-21T12:52:25;100874.47;;;20.32;43.16
68822;BME280;55834;50.870;4.606;2023-05-21T12:54:53;100882.09;;;20.11;43.14
68822;BME280;55834;50.870;4.606;2023-05-21T12:57:26;100884.25;;;20.05;44.50
68822;BME280;55834;50.870;4.606;2023-05-21T12:59:54;100880.28;;;20.38;44.12
68822;BME280;55834;50.870;4.606;2023-05-21T13:05:08;100875.19;;;19.79;45.99
68822;BME280;55834;50.870;4.606;2023-05-21T13:07:36;100868.59;;;19.71;44.69
68822;BME280;55834;50.870;4.606;2023-05-21T13:10:03;100879.91;;;19.61;45.00
68822;BME280;55834;50.870;4.606;2023-05-21T13:12:30;100869.78;;;19.67;45.24
68822;BME280;55834;50.870;4.606;2023-05-21T13:14:57;100868.81;;;19.68;44.37
68822;BME280;55834;50.870;4.606;2023-05-21T13:17:34;100860.66;;;20.38;45.07